Time;durP1;ratioP1;P1;durP2;ratioP2;P2;SDS_P1;SDS_P2;PMS_P1;PMS_P2;Temp;Humidity;BMP_temperature;BMP_pressure;BME280_temperature;BME280_humidity;BME280_pressure;Samples;Min_cycle;Max_cycle;Signal;HPM_P1;HPM_P2
2021/06/22 00:02:17;;;;;;;1.40;0.40;;;13.70;99.90;;;;;;4991039;28;20205;-70
2021/06/22 00:04:44;;;;;;;0.00;0.00;;;13.70;99.90;;;;;;4989640;28;20209;-71
2021/06/22 00:07:14;;;;;;;0.00;0.00;;;13.60;99.90;;;;;;4991617;28;20193;-71
2021/06/22 00:09:41;;;;;;;0.87;0.30;;;13.60;99.90;;;;;;4980492;28;22129;-71
2021/06/22 00:12:09;;;;;;;0.00;0.00;;;13.60;99.90;;;;;;4976681;28;20213;-70
2021/06/22 00:14:36;;;;;;;0.40;0.30;;;13.50;99.90;;;;;;4976702;28;20770;-72
2021/06/22 00:17:03;;;;;;;0.00;0.00;;;13.50;99.90;;;;;;4980049;28;20206;-70
2021/06/22 00:19:32;;;;;;;0.10;0.10;;;13.50;99.90;;;;;;4978683;28;20202;-71
2021/06/22 00:21:59;;;;;;;0.00;0.00;;;13.40;99.90;;;;;;5002549;28;20271;-72
2021/06/22 00:24:26;;;;;;;0.07;0.07;;;13.40;99.90;;;;;;4990885;28;20256;-72
2021/06/22 00:26:53;;;;;;;0.10;0.10;;;13.30;99.90;;;;;;4990941;28;20209;-72
2021/06/22 00:29:23;;;;;;;0.77;0.33;;;13.30;99.90;;;;;;4987425;28;20201;-71
2021/06/22 00:31:50;;;;;;;0.40;0.40;;;13.30;99.90;;;;;;4989849;28;20244;-69
2021/06/22 00:34:17;;;;;;;0.30;0.20;;;13.30;99.90;;;;;;4987105;28;20260;-67
2021/06/22 00:36:45;;;;;;;0.20;0.10;;;13.30;99.90;;;;;;4987946;28;20257;-64
2021/06/22 00:39:12;;;;;;;0.00;0.00;;;13.30;99.90;;;;;;4986463;28;20209;-65
2021/06/22 00:41:39;;;;;;;0.00;0.00;;;13.30;99.90;;;;;;4986776;28;20201;-65
2021/06/22 00:44:07;;;;;;;0.33;0.33;;;13.30;99.90;;;;;;4989211;28;20205;-65
2021/06/22 00:46:35;;;;;;;0.00;0.00;;;13.30;99.90;;;;;;4985765;28;20206;-69
2021/06/22 00:49:03;;;;;;;0.00;0.00;;;13.20;99.90;;;;;;4989337;28;20202;-65
2021/06/22 00:51:30;;;;;;;0.50;0.50;;;13.20;99.90;;;;;;4988782;28;20542;-68
2021/06/22 00:53:59;;;;;;;0.00;0.00;;;13.20;99.90;;;;;;4988093;28;20209;-71
2021/06/22 00:56:26;;;;;;;0.57;0.57;;;13.20;99.90;;;;;;4988634;28;20291;-65
2021/06/22 00:58:53;;;;;;;0.60;0.17;;;13.20;99.90;;;;;;4988484;28;20202;-69
2021/06/22 01:01:20;;;;;;;0.00;0.00;;;13.20;99.90;;;;;;4987273;28;20256;-71
2021/06/22 01:03:47;;;;;;;0.77;0.77;;;13.30;99.90;;;;;;4986509;28;20210;-65
2021/06/22 01:06:14;;;;;;;0.00;0.00;;;13.30;99.90;;;;;;4989563;28;20790;-67
2021/06/22 01:08:41;;;;;;;2.40;0.30;;;13.30;99.90;;;;;;4990331;28;20208;-69
2021/06/22 01:11:10;;;;;;;0.00;0.00;;;13.30;99.90;;;;;;4988782;28;20277;-67
2021/06/22 01:13:37;;;;;;;0.13;0.10;;;13.30;99.90;;;;;;4989896;28;20296;-72
2021/06/22 01:16:05;;;;;;;0.00;0.00;;;13.30;99.90;;;;;;4990447;28;20248;-68
2021/06/22 01:18:32;;;;;;;0.27;0.13;;;13.30;99.90;;;;;;4987613;28;20198;-65
2021/06/22 01:21:00;;;;;;;0.00;0.00;;;13.30;99.90;;;;;;5001847;28;20216;-71
2021/06/22 01:23:27;;;;;;;0.67;0.40;;;13.30;99.90;;;;;;4986650;28;20252;-67
2021/06/22 01:25:54;;;;;;;0.00;0.00;;;13.30;99.90;;;;;;4989684;28;20268;-70
2021/06/22 01:28:21;;;;;;;0.50;0.37;;;13.30;99.90;;;;;;4988868;28;20264;-71
2021/06/22 01:30:48;;;;;;;0.00;0.00;;;13.30;99.90;;;;;;4984590;28;20209;-70
2021/06/22 01:33:15;;;;;;;0.30;0.30;;;13.40;99.90;;;;;;4989581;28;20209;-71
2021/06/22 01:35:42;;;;;;;0.30;0.30;;;13.40;99.90;;;;;;4989134;28;20234;-67
2021/06/22 01:38:10;;;;;;;0.00;0.00;;;13.50;99.90;;;;;;4988933;28;20221;-71
2021/06/22 01:40:44;;;;;;;0.60;0.30;;;13.50;99.90;;;;;;4985650;28;20241;-65
2021/06/22 01:43:11;;;;;;;0.00;0.00;;;13.50;99.90;;;;;;4989506;28;20207;-71
2021/06/22 01:45:38;;;;;;;0.30;0.30;;;13.50;99.90;;;;;;4989553;28;20245;-68
2021/06/22 01:48:06;;;;;;;0.00;0.00;;;13.50;99.90;;;;;;4989607;28;20722;-71
2021/06/22 01:50:33;;;;;;;0.00;0.00;;;13.50;99.90;;;;;;4989879;28;20196;-71
2021/06/22 01:53:00;;;;;;;3.23;1.33;;;13.50;99.90;;;;;;4987680;28;20213;-71
2021/06/22 01:55:38;;;;;;;0.00;0.00;;;13.50;99.90;;;;;;4980699;28;20240;-69
2021/06/22 01:58:07;;;;;;;0.00;0.00;;;13.50;99.90;;;;;;4981362;28;20277;-71
2021/06/22 02:00:34;;;;;;;0.57;0.57;;;13.50;99.90;;;;;;4981166;28;20465;-72
2021/06/22 02:03:01;;;;;;;0.33;0.33;;;13.50;99.90;;;;;;4975715;28;21936;-72
2021/06/22 02:05:28;;;;;;;2.33;0.63;;;13.50;99.90;;;;;;4984477;28;20201;-68
2021/06/22 02:07:55;;;;;;;0.00;0.00;;;13.50;99.90;;;;;;4989689;28;20273;-69
2021/06/22 02:10:22;;;;;;;0.40;0.40;;;13.50;99.90;;;;;;4989787;28;20205;-67
2021/06/22 02:12:51;;;;;;;0.70;0.23;;;13.40;99.90;;;;;;4988726;28;20817;-71
2021/06/22 02:15:18;;;;;;;0.20;0.20;;;13.50;99.90;;;;;;4987816;28;20233;-69
2021/06/22 02:17:45;;;;;;;0.30;0.30;;;13.40;99.90;;;;;;4986991;28;20626;-68
2021/06/22 02:20:14;;;;;;;0.00;0.00;;;13.50;99.90;;;;;;4989611;28;20269;-71
2021/06/22 02:22:41;;;;;;;0.20;0.20;;;13.40;99.90;;;;;;4989854;28;20214;-70
2021/06/22 02:25:09;;;;;;;0.00;0.00;;;13.40;99.90;;;;;;4988098;28;20544;-70
2021/06/22 02:27:37;;;;;;;0.00;0.00;;;13.40;99.90;;;;;;4989554;28;20205;-69
2021/06/22 02:30:07;;;;;;;0.10;0.10;;;13.40;99.90;;;;;;4986435;28;20202;-70
2021/06/22 02:32:34;;;;;;;0.00;0.00;;;13.40;99.90;;;;;;4994885;28;20763;-66
2021/06/22 02:35:02;;;;;;;0.13;0.13;;;13.40;99.90;;;;;;4988014;28;20265;-67
2021/06/22 02:37:29;;;;;;;0.10;0.10;;;13.40;99.90;;;;;;4991950;28;20269;-64
2021/06/22 02:39:55;;;;;;;0.00;0.00;;;13.40;99.90;;;;;;4988006;28;20236;-65
2021/06/22 02:42:22;;;;;;;0.27;0.27;;;13.40;99.90;;;;;;4989340;28;20854;-65
2021/06/22 02:44:49;;;;;;;0.00;0.00;;;13.40;99.90;;;;;;4986931;28;20244;-65
2021/06/22 02:47:18;;;;;;;0.00;0.00;;;13.40;99.90;;;;;;4989410;28;20958;-65
2021/06/22 02:49:45;;;;;;;0.93;0.93;;;13.40;99.90;;;;;;4985116;28;20206;-65
2021/06/22 02:52:12;;;;;;;0.10;0.10;;;13.40;99.90;;;;;;4989891;28;20206;-65
2021/06/22 02:54:39;;;;;;;0.20;0.20;;;13.40;99.90;;;;;;4988380;28;20723;-65
2021/06/22 02:57:08;;;;;;;0.10;0.10;;;13.40;99.90;;;;;;4991329;28;20253;-67
2021/06/22 02:59:35;;;;;;;0.20;0.20;;;13.50;99.90;;;;;;4989293;28;20303;-72
2021/06/22 03:02:03;;;;;;;0.17;0.17;;;13.50;99.90;;;;;;4986891;28;20202;-71
2021/06/22 03:04:31;;;;;;;0.20;0.20;;;13.50;99.90;;;;;;4984246;28;20210;-66
2021/06/22 03:06:58;;;;;;;0.00;0.00;;;13.50;99.90;;;;;;4980183;28;20209;-66
2021/06/22 03:09:26;;;;;;;0.10;0.10;;;13.50;99.90;;;;;;4983732;28;20283;-65
2021/06/22 03:11:54;;;;;;;0.67;0.67;;;13.50;99.90;;;;;;4983782;28;20248;-65
2021/06/22 03:14:22;;;;;;;0.00;0.00;;;13.50;99.90;;;;;;4978827;28;20353;-64
2021/06/22 03:16:49;;;;;;;0.03;0.03;;;13.50;99.90;;;;;;4985166;28;20320;-64
2021/06/22 03:19:16;;;;;;;0.00;0.00;;;13.50;99.90;;;;;;4990647;28;20257;-64
2021/06/22 03:21:45;;;;;;;0.30;0.30;;;13.50;99.90;;;;;;4992479;28;20210;-65
2021/06/22 03:24:12;;;;;;;1.90;0.30;;;13.50;99.90;;;;;;4989547;28;20229;-65
2021/06/22 03:26:39;;;;;;;0.20;0.00;;;13.40;99.90;;;;;;4989581;28;20728;-64
2021/06/22 03:29:07;;;;;;;0.60;0.60;;;13.40;99.90;;;;;;4988619;28;20674;-64
2021/06/22 03:31:35;;;;;;;0.00;0.00;;;13.40;99.90;;;;;;4991007;28;20209;-64
2021/06/22 03:34:02;;;;;;;0.07;0.07;;;13.40;99.90;;;;;;4990764;28;20291;-65
2021/06/22 03:36:29;;;;;;;0.00;0.00;;;13.50;99.90;;;;;;4990363;28;20698;-65
2021/06/22 03:38:58;;;;;;;0.00;0.00;;;13.40;99.90;;;;;;4989575;28;20360;-65
2021/06/22 03:41:25;;;;;;;0.00;0.00;;;13.40;99.90;;;;;;4982972;28;20714;-65
2021/06/22 03:43:52;;;;;;;0.10;0.10;;;13.40;99.90;;;;;;4986746;28;20205;-65
2021/06/22 03:46:19;;;;;;;0.33;0.33;;;13.40;99.90;;;;;;4979670;28;20209;-64
2021/06/22 03:48:47;;;;;;;0.00;0.00;;;13.40;99.90;;;;;;4983076;28;20608;-65
2021/06/22 03:51:14;;;;;;;0.00;0.00;;;13.40;99.90;;;;;;4985026;28;20244;-65
2021/06/22 03:53:42;;;;;;;0.00;0.00;;;13.40;99.90;;;;;;4984723;28;20209;-64
2021/06/22 03:56:10;;;;;;;0.00;0.00;;;13.50;99.90;;;;;;4985144;28;20241;-66
2021/06/22 03:58:38;;;;;;;0.10;0.10;;;13.40;99.90;;;;;;4991615;28;20257;-65
2021/06/22 04:01:05;;;;;;;0.00;0.00;;;13.50;99.90;;;;;;5001809;28;20268;-64
2021/06/22 04:03:32;;;;;;;0.03;0.03;;;13.50;99.90;;;;;;4984855;28;20252;-64
2021/06/22 04:05:59;;;;;;;0.00;0.00;;;13.50;99.90;;;;;;4988692;28;20209;-64
2021/06/22 04:08:26;;;;;;;0.00;0.00;;;13.50;99.90;;;;;;4990771;28;20205;-67
2021/06/22 04:10:53;;;;;;;0.00;0.00;;;13.50;99.90;;;;;;4988366;28;20206;-65
2021/06/22 04:13:22;;;;;;;0.00;0.00;;;13.50;99.90;;;;;;4986553;28;20271;-64
2021/06/22 04:15:49;;;;;;;0.00;0.00;;;13.50;99.90;;;;;;4991042;28;20209;-65
2021/06/22 04:18:15;;;;;;;0.00;0.00;;;13.60;99.90;;;;;;4991218;28;20206;-66
2021/06/22 04:20:42;;;;;;;0.00;0.00;;;13.50;99.90;;;;;;4990182;28;20313;-65
2021/06/22 04:23:09;;;;;;;0.00;0.00;;;13.60;99.90;;;;;;4989148;28;20230;-65
2021/06/22 04:25:36;;;;;;;0.40;0.40;;;13.60;99.90;;;;;;4990692;28;20205;-65
2021/06/22 04:28:05;;;;;;;0.00;0.00;;;13.60;99.90;;;;;;4988338;28;20214;-65
2021/06/22 04:30:35;;;;;;;0.00;0.00;;;13.60;99.90;;;;;;4990920;28;20202;-65
2021/06/22 04:33:02;;;;;;;0.13;0.13;;;13.60;99.90;;;;;;4988931;28;20613;-66
2021/06/22 04:35:30;;;;;;;0.07;0.00;;;13.70;99.90;;;;;;4990859;28;20252;-65
2021/06/22 04:37:58;;;;;;;0.00;0.00;;;13.70;99.90;;;;;;4990586;28;20226;-67
2021/06/22 04:40:25;;;;;;;1.30;1.30;;;13.70;99.90;;;;;;4991087;28;20250;-66
2021/06/22 04:42:52;;;;;;;0.00;0.00;;;13.80;99.90;;;;;;4990038;28;20717;-65
2021/06/22 04:45:19;;;;;;;0.00;0.00;;;13.80;99.90;;;;;;4988861;28;20213;-66
2021/06/22 04:47:47;;;;;;;0.00;0.00;;;13.90;99.90;;;;;;4990311;28;20217;-66
2021/06/22 04:50:14;;;;;;;0.20;0.20;;;13.90;99.90;;;;;;4989978;28;20726;-64
2021/06/22 04:52:41;;;;;;;0.77;0.77;;;13.90;99.90;;;;;;4993962;28;20209;-65
2021/06/22 04:55:13;;;;;;;2.00;1.90;;;14.00;99.90;;;;;;4998761;28;20233;-66
2021/06/22 04:57:40;;;;;;;0.00;0.00;;;14.00;99.90;;;;;;4998255;28;20279;-66
2021/06/22 05:00:08;;;;;;;0.00;0.00;;;14.00;99.90;;;;;;4989636;28;20204;-64
2021/06/22 05:02:35;;;;;;;2.83;1.30;;;14.00;99.90;;;;;;4974002;28;20407;-65
2021/06/22 05:05:05;;;;;;;2.27;0.50;;;14.00;99.90;;;;;;4987996;28;20570;-69
2021/06/22 05:07:32;;;;;;;0.43;0.43;;;14.00;99.90;;;;;;4987913;28;20261;-70
2021/06/22 05:10:00;;;;;;;1.73;1.23;;;14.00;99.90;;;;;;4989049;28;20205;-68
2021/06/22 05:12:27;;;;;;;0.03;0.03;;;14.00;99.90;;;;;;4987283;28;20209;-70
2021/06/22 05:14:54;;;;;;;0.00;0.00;;;14.00;99.90;;;;;;4990129;28;20260;-73
2021/06/22 05:17:21;;;;;;;0.60;0.40;;;14.00;99.90;;;;;;4988327;28;20668;-70
2021/06/22 05:19:48;;;;;;;0.20;0.20;;;14.00;99.90;;;;;;4989663;28;20201;-72
2021/06/22 05:22:17;;;;;;;0.30;0.30;;;14.00;99.90;;;;;;4988168;28;20236;-73
2021/06/22 05:24:44;;;;;;;0.03;0.03;;;14.00;99.90;;;;;;4989767;28;20205;-69
2021/06/22 05:27:12;;;;;;;0.43;0.40;;;13.90;99.90;;;;;;4986601;28;20863;-68
2021/06/22 05:29:39;;;;;;;0.93;0.90;;;13.90;99.90;;;;;;4987457;28;20216;-68
2021/06/22 05:32:07;;;;;;;0.77;0.77;;;13.90;99.90;;;;;;4985889;28;20629;-68
2021/06/22 05:34:35;;;;;;;0.77;0.77;;;13.90;99.90;;;;;;4989985;28;20217;-73
2021/06/22 05:37:02;;;;;;;0.17;0.17;;;13.80;99.90;;;;;;4988687;28;20283;-64
2021/06/22 05:39:31;;;;;;;1.90;0.87;;;13.70;99.90;;;;;;4990093;28;20587;-66
2021/06/22 05:41:57;;;;;;;0.57;0.57;;;13.70;99.90;;;;;;4988196;28;20268;-67
2021/06/22 05:44:25;;;;;;;0.43;0.43;;;13.70;99.90;;;;;;4987948;28;20336;-65
2021/06/22 05:46:52;;;;;;;0.10;0.10;;;13.60;99.90;;;;;;4989727;28;20667;-64
2021/06/22 05:49:19;;;;;;;0.83;0.83;;;13.60;99.90;;;;;;4991200;28;20221;-67
2021/06/22 05:51:46;;;;;;;0.00;0.00;;;13.60;99.90;;;;;;4989587;28;20240;-66
2021/06/22 05:54:14;;;;;;;0.47;0.47;;;13.60;99.90;;;;;;5000332;28;20760;-64
2021/06/22 05:56:42;;;;;;;0.07;0.07;;;13.60;99.90;;;;;;4989973;28;20230;-65
2021/06/22 05:59:09;;;;;;;0.00;0.00;;;13.70;99.90;;;;;;4990477;28;20212;-66
2021/06/22 06:01:36;;;;;;;0.73;0.53;;;13.70;99.90;;;;;;4984977;28;20770;-67
2021/06/22 06:04:03;;;;;;;7.73;1.20;;;13.70;99.90;;;;;;4986965;28;20538;-66
2021/06/22 06:06:30;;;;;;;0.60;0.37;;;13.70;99.90;;;;;;4984202;28;20206;-67
2021/06/22 06:08:57;;;;;;;0.60;0.60;;;13.80;99.90;;;;;;4976825;28;20208;-71
2021/06/22 06:11:24;;;;;;;0.00;0.00;;;13.80;99.90;;;;;;4979331;28;20202;-68
2021/06/22 06:13:53;;;;;;;0.33;0.33;;;13.80;99.90;;;;;;4976487;28;20210;-68
2021/06/22 06:16:20;;;;;;;0.00;0.00;;;13.80;99.90;;;;;;4975378;28;20629;-66
2021/06/22 06:18:48;;;;;;;0.00;0.00;;;13.90;99.90;;;;;;4979474;28;20682;-66
2021/06/22 06:21:15;;;;;;;0.00;0.00;;;13.90;99.90;;;;;;4985303;28;20245;-67
2021/06/22 06:23:44;;;;;;;0.30;0.30;;;13.90;99.90;;;;;;4989478;28;20652;-70
2021/06/22 06:26:14;;;;;;;0.00;0.00;;;13.90;99.90;;;;;;4989119;28;20205;-68
2021/06/22 06:28:44;;;;;;;1.23;1.20;;;13.90;99.90;;;;;;4991684;28;20209;-69
2021/06/22 06:31:13;;;;;;;0.10;0.10;;;13.90;99.90;;;;;;4993402;28;20202;-66
2021/06/22 06:33:40;;;;;;;0.10;0.10;;;13.80;99.90;;;;;;4992561;28;20256;-68
2021/06/22 06:36:07;;;;;;;0.00;0.00;;;13.80;99.90;;;;;;4988043;28;20575;-66
2021/06/22 06:38:34;;;;;;;0.00;0.00;;;13.80;99.90;;;;;;4991486;28;20764;-65
2021/06/22 06:41:01;;;;;;;1.13;1.03;;;13.80;99.90;;;;;;4989829;28;20202;-66
2021/06/22 06:43:28;;;;;;;0.20;0.20;;;13.80;99.90;;;;;;4990533;28;20209;-66
2021/06/22 06:45:55;;;;;;;0.50;0.50;;;13.80;99.90;;;;;;4994047;28;20206;-68
2021/06/22 06:48:25;;;;;;;0.13;0.13;;;13.80;99.90;;;;;;5004017;28;20259;-69
2021/06/22 06:50:53;;;;;;;0.03;0.03;;;13.80;99.90;;;;;;4994798;28;20224;-68
2021/06/22 06:53:20;;;;;;;0.00;0.00;;;13.80;99.90;;;;;;4996159;28;20725;-71
2021/06/22 06:55:47;;;;;;;0.40;0.20;;;13.80;99.90;;;;;;4990560;28;20241;-66
2021/06/22 06:58:15;;;;;;;0.73;0.73;;;13.80;99.90;;;;;;4995211;28;20240;-70
2021/06/22 07:00:42;;;;;;;1.07;1.07;;;13.80;99.90;;;;;;4996535;28;20615;-67
2021/06/22 07:03:09;;;;;;;0.00;0.00;;;13.80;99.90;;;;;;4995670;28;20216;-72
2021/06/22 07:05:38;;;;;;;0.00;0.00;;;13.80;99.90;;;;;;4982997;28;20216;-66
2021/06/22 07:08:06;;;;;;;0.07;0.07;;;13.80;99.90;;;;;;4980557;28;20209;-68
2021/06/22 07:10:33;;;;;;;0.30;0.30;;;13.90;99.90;;;;;;4980647;28;20217;-71
2021/06/22 07:13:04;;;;;;;0.00;0.00;;;13.80;99.90;;;;;;4979272;28;20209;-67
2021/06/22 07:15:31;;;;;;;0.70;0.70;;;13.90;99.90;;;;;;4981474;28;20294;-70
2021/06/22 07:17:58;;;;;;;0.10;0.10;;;13.90;99.90;;;;;;4980035;28;20279;-72
2021/06/22 07:20:25;;;;;;;0.00;0.00;;;13.90;99.90;;;;;;4982233;28;20210;-69
2021/06/22 07:22:54;;;;;;;0.00;0.00;;;13.90;99.90;;;;;;4980956;28;20214;-71
2021/06/22 07:25:25;;;;;;;0.00;0.00;;;13.90;99.90;;;;;;4983322;28;20272;-69
2021/06/22 07:27:52;;;;;;;0.20;0.20;;;13.90;99.90;;;;;;4982474;28;20210;-66
2021/06/22 07:30:23;;;;;;;6.47;3.47;;;13.90;99.90;;;;;;4980486;28;20201;-69
2021/06/22 07:32:50;;;;;;;0.00;0.00;;;13.80;99.90;;;;;;4980799;28;20911;-71
2021/06/22 07:35:17;;;;;;;1.50;1.33;;;13.80;99.90;;;;;;4982238;28;20680;-71
2021/06/22 07:37:45;;;;;;;1.27;1.17;;;13.80;99.90;;;;;;4981803;28;20228;-66
2021/06/22 07:40:14;;;;;;;1.47;0.73;;;13.80;99.90;;;;;;4981861;28;20357;-67
2021/06/22 07:42:41;;;;;;;1.53;1.10;;;13.80;99.90;;;;;;4981017;28;20264;-73
2021/06/22 07:45:10;;;;;;;2.93;1.97;;;13.80;99.90;;;;;;4983923;28;20261;-70
2021/06/22 07:47:37;;;;;;;1.57;1.47;;;13.80;99.90;;;;;;4982758;28;20743;-74
2021/06/22 07:50:06;;;;;;;0.73;0.73;;;13.80;99.90;;;;;;4980649;28;20304;-70
2021/06/22 07:52:33;;;;;;;1.70;1.60;;;13.80;99.90;;;;;;4981171;28;20210;-72
2021/06/22 07:54:59;;;;;;;3.53;2.20;;;13.80;99.90;;;;;;4981640;28;20256;-72
2021/06/22 07:57:28;;;;;;;1.80;1.70;;;13.80;99.90;;;;;;4980870;28;20281;-74
2021/06/22 07:59:55;;;;;;;0.97;0.87;;;13.80;99.90;;;;;;4980382;28;20206;-74
2021/06/22 08:02:22;;;;;;;4.50;3.23;;;13.90;99.90;;;;;;4980754;28;20205;-73
2021/06/22 08:04:49;;;;;;;0.57;0.57;;;13.90;99.90;;;;;;4978933;28;20258;-72
2021/06/22 08:07:16;;;;;;;0.03;0.03;;;13.90;99.90;;;;;;4985650;28;20206;-75
2021/06/22 08:09:43;;;;;;;0.10;0.10;;;14.00;99.90;;;;;;4981911;28;20202;-69
2021/06/22 08:12:11;;;;;;;3.00;1.90;;;14.10;99.90;;;;;;4981471;28;20252;-66
2021/06/22 08:14:39;;;;;;;1.07;1.07;;;14.20;99.90;;;;;;4983617;28;20220;-65
2021/06/22 08:17:07;;;;;;;0.37;0.37;;;14.20;99.90;;;;;;4980668;28;20202;-66
2021/06/22 08:19:34;;;;;;;1.33;1.23;;;14.30;99.90;;;;;;4981464;28;20208;-69
2021/06/22 08:22:02;;;;;;;0.20;0.20;;;14.40;99.90;;;;;;4980149;28;20311;-71
2021/06/22 08:24:29;;;;;;;0.73;0.73;;;14.50;99.90;;;;;;4981000;28;20633;-69
2021/06/22 08:26:56;;;;;;;0.50;0.50;;;14.60;99.90;;;;;;4979995;28;20209;-68
2021/06/22 08:29:23;;;;;;;0.00;0.00;;;14.70;99.90;;;;;;4982873;28;20540;-70
2021/06/22 08:31:51;;;;;;;0.60;0.60;;;15.00;99.90;;;;;;4979866;28;20632;-71
2021/06/22 08:34:18;;;;;;;0.30;0.30;;;15.10;99.90;;;;;;4980823;28;20342;-65
2021/06/22 08:36:45;;;;;;;0.87;0.87;;;15.20;99.90;;;;;;4979777;28;20202;-68
2021/06/22 08:39:12;;;;;;;3.80;1.80;;;15.30;99.90;;;;;;4981246;28;20699;-70
2021/06/22 08:41:40;;;;;;;1.20;1.10;;;15.50;99.90;;;;;;4980904;28;20213;-67
2021/06/22 08:44:09;;;;;;;1.27;1.23;;;15.60;99.90;;;;;;4979794;28;20206;-69
2021/06/22 08:46:37;;;;;;;2.83;1.93;;;15.60;99.90;;;;;;4980864;28;20204;-66
2021/06/22 08:49:06;;;;;;;0.83;0.67;;;15.50;99.90;;;;;;4978295;28;20210;-66
2021/06/22 08:51:34;;;;;;;1.97;1.87;;;15.50;99.90;;;;;;4981440;28;20717;-65
2021/06/22 08:54:01;;;;;;;0.60;0.60;;;15.50;99.90;;;;;;4978337;28;20241;-67
2021/06/22 08:56:28;;;;;;;1.93;1.17;;;15.50;99.90;;;;;;4979256;28;20209;-67
2021/06/22 08:58:55;;;;;;;0.30;0.30;;;15.50;99.90;;;;;;4979645;28;20324;-66
2021/06/22 09:01:22;;;;;;;3.23;2.10;;;15.40;99.90;;;;;;4977446;28;20666;-68
2021/06/22 09:03:49;;;;;;;0.83;0.47;;;15.50;99.90;;;;;;4980431;28;20248;-66
2021/06/22 09:06:17;;;;;;;0.70;0.70;;;15.50;99.90;;;;;;4978323;28;20252;-66
2021/06/22 09:08:51;;;;;;;0.67;0.67;;;15.60;99.90;;;;;;4979615;28;20229;-67
2021/06/22 09:11:19;;;;;;;0.53;0.53;;;15.60;99.90;;;;;;4978541;28;20245;-66
2021/06/22 09:13:58;;;;;;;2.53;1.30;;;15.60;99.90;;;;;;4980473;28;20202;-66
2021/06/22 09:16:26;;;;;;;4.00;2.03;;;15.70;99.90;;;;;;4977602;28;20213;-67
2021/06/22 09:18:53;;;;;;;0.63;0.53;;;15.70;99.90;;;;;;4979578;28;20284;-67
2021/06/22 09:21:24;;;;;;;0.77;0.77;;;15.80;99.90;;;;;;4979597;28;20217;-71
2021/06/22 09:23:52;;;;;;;1.37;1.07;;;15.80;99.90;;;;;;4978254;28;20202;-70
2021/06/22 09:26:22;;;;;;;0.87;0.87;;;15.80;99.90;;;;;;4978942;28;20217;-69
2021/06/22 09:28:50;;;;;;;19.37;3.93;;;15.70;99.90;;;;;;4978491;28;20214;-69
2021/06/22 09:31:19;;;;;;;1.40;0.80;;;15.70;99.90;;;;;;4977515;28;20292;-70
2021/06/22 09:33:48;;;;;;;0.50;0.50;;;15.60;99.90;;;;;;4979004;28;20264;-69
2021/06/22 09:36:19;;;;;;;2.93;1.70;;;15.70;99.90;;;;;;4978304;28;20299;-73
2021/06/22 09:38:52;;;;;;;0.00;0.00;;;15.70;99.90;;;;;;4977765;28;20630;-69
2021/06/22 09:41:22;;;;;;;0.97;0.43;;;15.90;99.90;;;;;;4978297;28;20210;-75
2021/06/22 09:43:51;;;;;;;0.00;0.00;;;15.90;99.90;;;;;;4978395;28;20206;-75
2021/06/22 09:46:36;;;;;;;0.37;0.37;;;16.00;99.90;;;;;;4984642;28;20225;-69
2021/06/22 09:49:05;;;;;;;0.67;0.67;;;16.10;99.90;;;;;;4994942;28;20673;-72
2021/06/22 09:51:35;;;;;;;2.87;0.90;;;16.10;99.90;;;;;;4990998;28;20205;-73
2021/06/22 09:54:20;;;;;;;0.40;0.37;;;16.10;99.90;;;;;;4984128;28;170700;-71
2021/06/22 09:56:57;;;;;;;1.87;1.73;;;16.10;99.90;;;;;;4973051;28;20213;-74
2021/06/22 09:59:29;;;;;;;2.67;2.30;;;16.10;99.90;;;;;;4989275;28;20236;-66
2021/06/22 10:02:09;;;;;;;1.13;0.67;;;16.10;99.90;;;;;;4997670;28;20272;-68
2021/06/22 10:04:36;;;;;;;0.20;0.20;;;16.10;99.90;;;;;;4996762;28;20289;-77
2021/06/22 10:07:04;;;;;;;3.30;2.53;;;16.30;99.90;;;;;;4997176;28;20252;-76
2021/06/22 10:09:34;;;;;;;0.93;0.93;;;16.30;99.90;;;;;;4996173;28;20690;-75
2021/06/22 10:12:07;;;;;;;0.10;0.10;;;16.40;99.90;;;;;;4995605;28;20217;-77
2021/06/22 10:14:35;;;;;;;0.27;0.27;;;16.50;99.90;;;;;;4996223;28;20198;-72
2021/06/22 10:17:04;;;;;;;0.93;0.83;;;16.50;99.90;;;;;;4994266;28;20212;-68
2021/06/22 10:19:33;;;;;;;0.40;0.40;;;16.50;99.90;;;;;;4991497;28;20233;-72
2021/06/22 10:22:03;;;;;;;0.63;0.63;;;16.50;99.90;;;;;;4995001;28;20614;-75
2021/06/22 10:24:31;;;;;;;0.70;0.63;;;16.50;99.90;;;;;;4996675;28;20674;-73
2021/06/22 10:27:01;;;;;;;1.50;1.03;;;16.60;99.90;;;;;;4996600;28;20659;-75
2021/06/22 10:29:30;;;;;;;0.00;0.00;;;16.60;99.90;;;;;;4994726;28;20757;-69
2021/06/22 10:31:59;;;;;;;0.83;0.83;;;16.60;99.90;;;;;;4995357;28;20296;-75
2021/06/22 10:34:26;;;;;;;2.10;0.97;;;16.60;99.90;;;;;;4995747;28;20217;-73
2021/06/22 10:36:57;;;;;;;0.00;0.00;;;16.70;99.90;;;;;;4993242;28;20206;-75
2021/06/22 10:39:30;;;;;;;0.00;0.00;;;16.70;99.90;;;;;;4994211;28;20320;-71
2021/06/22 10:42:07;;;;;;;0.47;0.47;;;16.80;99.90;;;;;;4986568;28;20210;-72
2021/06/22 10:44:40;;;;;;;0.30;0.30;;;16.90;99.90;;;;;;4986311;28;20205;-68
2021/06/22 10:47:18;;;;;;;1.07;1.07;;;16.90;99.90;;;;;;4985935;28;20236;-69
2021/06/22 10:49:58;;;;;;;0.27;0.27;;;16.90;99.90;;;;;;4982343;28;20206;-72
2021/06/22 10:52:56;;;;;;;0.10;0.10;;;17.00;99.90;;;;;;4979658;28;20206;-71
2021/06/22 10:56:04;;;;;;;0.33;0.33;;;17.20;99.90;;;;;;4982355;28;20245;-69
2021/06/22 10:58:32;;;;;;;0.57;0.57;;;17.30;99.90;;;;;;4980711;28;20724;-70
2021/06/22 11:01:19;;;;;;;0.10;0.10;;;17.40;99.90;;;;;;4981597;28;20662;-67
2021/06/22 11:04:04;;;;;;;0.63;0.63;;;17.50;99.90;;;;;;4981667;28;21397;-64
2021/06/22 11:06:31;;;;;;;0.00;0.00;;;17.60;99.90;;;;;;4981084;28;20300;-67
2021/06/22 11:09:28;;;;;;;0.37;0.37;;;17.60;99.90;;;;;;4984381;28;20202;-72
2021/06/22 11:12:24;;;;;;;0.97;0.43;;;17.60;99.90;;;;;;4912602;29;20208;-68
2021/06/22 11:15:08;;;;;;;0.00;0.00;;;17.60;99.90;;;;;;4978470;28;20741;-69
2021/06/22 11:18:00;;;;;;;0.00;0.00;;;17.60;99.90;;;;;;4984392;28;20210;-69
2021/06/22 11:20:31;;;;;;;0.30;0.23;;;17.50;99.90;;;;;;4981480;28;20297;-67
2021/06/22 11:23:07;;;;;;;0.03;0.03;;;17.50;99.90;;;;;;4981399;28;20194;-68
2021/06/22 11:25:50;;;;;;;0.47;0.43;;;17.50;99.90;;;;;;4981903;28;20838;-69
2021/06/22 11:28:18;;;;;;;0.20;0.20;;;17.40;99.90;;;;;;4982241;28;20264;-71
2021/06/22 11:30:53;;;;;;;1.10;0.60;;;17.20;99.90;;;;;;4981508;28;20285;-70
2021/06/22 11:33:35;;;;;;;1.73;1.30;;;17.20;99.90;;;;;;4981326;28;20229;-73
2021/06/22 11:36:30;;;;;;;0.47;0.47;;;17.20;99.90;;;;;;4978435;28;20632;-72
2021/06/22 11:39:19;;;;;;;0.00;0.00;;;17.30;99.90;;;;;;4982166;28;20280;-68
2021/06/22 11:42:20;;;;;;;1.67;1.27;;;17.40;99.90;;;;;;4984937;28;20213;-74
2021/06/22 11:44:50;;;;;;;0.10;0.10;;;17.50;99.90;;;;;;4989788;28;20232;-68
2021/06/22 11:47:54;;;;;;;0.00;0.00;;;17.70;99.90;;;;;;4982336;28;20296;-71
2021/06/22 11:50:35;;;;;;;1.50;1.40;;;17.90;99.90;;;;;;4980874;28;20217;-67
2021/06/22 11:53:11;;;;;;;0.00;0.00;;;18.30;99.90;;;;;;4981532;28;20210;-75
2021/06/22 11:55:55;;;;;;;0.07;0.07;;;18.70;99.90;;;;;;4987634;28;20693;-66
2021/06/22 11:58:24;;;;;;;0.77;0.70;;;18.90;99.90;;;;;;4991851;28;21299;-67
2021/06/22 12:00:53;;;;;;;0.10;0.10;;;19.00;99.90;;;;;;4987833;28;20206;-69
2021/06/22 12:03:30;;;;;;;1.30;1.10;;;19.10;99.90;;;;;;4991885;28;20209;-69
2021/06/22 12:06:09;;;;;;;0.13;0.13;;;19.10;99.90;;;;;;4990683;28;20783;-73
2021/06/22 12:08:38;;;;;;;1.57;1.03;;;19.00;99.90;;;;;;4989144;28;20213;-71
2021/06/22 12:11:05;;;;;;;0.80;0.60;;;18.80;99.90;;;;;;4989427;28;20209;-72
2021/06/22 12:13:41;;;;;;;0.10;0.10;;;18.50;99.90;;;;;;4973471;28;20209;-72
2021/06/22 12:16:19;;;;;;;0.50;0.43;;;18.20;99.90;;;;;;4988767;28;20207;-73
2021/06/22 12:18:48;;;;;;;0.40;0.40;;;17.90;99.90;;;;;;4989411;28;20221;-73
2021/06/22 12:21:15;;;;;;;0.77;0.77;;;17.50;99.90;;;;;;4989904;28;20202;-71
2021/06/22 12:23:42;;;;;;;0.57;0.57;;;17.20;99.90;;;;;;4987580;28;20214;-72
2021/06/22 12:26:12;;;;;;;1.07;0.97;;;17.00;99.90;;;;;;4988654;28;20328;-73
2021/06/22 12:28:39;;;;;;;0.00;0.00;;;16.80;99.90;;;;;;4988456;28;20660;-72
2021/06/22 12:31:07;;;;;;;0.40;0.40;;;16.90;99.90;;;;;;4986123;28;20655;-69
2021/06/22 12:33:40;;;;;;;0.00;0.00;;;16.90;99.90;;;;;;4984519;28;20873;-72
2021/06/22 12:36:10;;;;;;;0.30;0.10;;;16.80;99.90;;;;;;4978554;28;20210;-72
2021/06/22 12:38:40;;;;;;;0.00;0.00;;;16.80;99.90;;;;;;4986212;28;20230;-71
2021/06/22 12:41:09;;;;;;;0.57;0.30;;;16.70;99.90;;;;;;4988214;28;20657;-71
2021/06/22 12:43:45;;;;;;;0.60;0.53;;;16.70;99.90;;;;;;4987757;28;20241;-72
2021/06/22 12:46:13;;;;;;;0.17;0.17;;;16.60;99.90;;;;;;4980454;28;20197;-74
2021/06/22 12:48:42;;;;;;;0.93;0.83;;;16.70;99.90;;;;;;4980941;28;20206;-72
2021/06/22 12:51:12;;;;;;;0.77;0.53;;;16.80;99.90;;;;;;4981966;28;20206;-71
2021/06/22 12:53:39;;;;;;;0.83;0.83;;;16.80;99.90;;;;;;4984141;28;20194;-73
2021/06/22 12:56:12;;;;;;;0.60;0.60;;;16.70;99.90;;;;;;4984607;28;20601;-72
2021/06/22 12:59:01;;;;;;;1.60;1.50;;;16.60;99.90;;;;;;4983526;28;20706;-72
2021/06/22 13:01:31;;;;;;;0.20;0.20;;;16.50;99.90;;;;;;4982812;28;20272;-72